createdAt,value
2022-08-05T00:00:56.198Z,33.35
2022-08-05T00:03:45.218Z,33.31
2022-08-05T00:06:28.962Z,33.29
2022-08-05T00:09:00.100Z,33.24
2022-08-05T00:11:30.335Z,33.23
2022-08-05T00:14:12.955Z,33.18
2022-08-05T00:16:52.466Z,33.16
2022-08-05T00:19:33.432Z,33.12
2022-08-05T00:22:11.495Z,33.08
2022-08-05T00:24:42.384Z,33.06
2022-08-05T00:27:16.598Z,32.95
2022-08-05T00:29:43.685Z,32.98
2022-08-05T00:32:15.509Z,32.97
2022-08-05T00:35:05.728Z,32.93
2022-08-05T00:37:51.394Z,32.90
2022-08-05T00:40:27.286Z,32.88
2022-08-05T00:43:02.684Z,32.85
2022-08-05T00:45:42.944Z,32.81
2022-08-05T00:48:14.196Z,32.81
2022-08-05T00:50:44.172Z,32.81
2022-08-05T00:54:01.430Z,32.72
2022-08-05T00:56:08.489Z,32.70
2022-08-05T00:58:38.771Z,32.65
2022-08-05T01:01:09.624Z,32.61
2022-08-05T01:03:38.269Z,32.56
2022-08-05T01:06:05.741Z,32.52
2022-08-05T01:08:43.437Z,32.48
2022-08-05T01:11:13.556Z,32.34
2022-08-05T01:13:57.704Z,32.40
2022-08-05T01:16:27.893Z,32.43
2022-08-05T01:18:56.761Z,32.42
2022-08-05T01:21:25.434Z,32.37
2022-08-05T01:24:13.152Z,32.43
2022-08-05T01:26:41.311Z,32.43
2022-08-05T01:29:08.797Z,32.39
2022-08-05T01:31:44.805Z,32.34
2022-08-05T01:34:12.991Z,32.28
2022-08-05T01:36:48.189Z,32.23
2022-08-05T01:39:36.846Z,32.19
2022-08-05T01:42:09.607Z,32.17
2022-08-05T01:44:36.619Z,32.15
2022-08-05T01:47:05.132Z,31.98
2022-08-05T01:50:00.343Z,32.02
2022-08-05T01:52:25.106Z,32.08
2022-08-05T01:54:51.998Z,32.06
2022-08-05T01:58:18.880Z,32.01
2022-08-05T02:00:11.565Z,32.00
2022-08-05T02:02:39.282Z,32.02
2022-08-05T02:05:18.747Z,32.00
2022-08-05T02:08:00.352Z,31.97
2022-08-05T02:10:32.221Z,31.97
2022-08-05T02:13:15.748Z,31.95
2022-08-05T02:15:50.356Z,31.96
2022-08-05T02:18:32.234Z,31.96
2022-08-05T02:21:03.794Z,31.87
2022-08-05T02:23:51.799Z,31.80
2022-08-05T02:26:28.517Z,31.72
2022-08-05T02:28:58.229Z,31.72
2022-08-05T02:31:34.621Z,31.72
2022-08-05T02:34:02.819Z,31.74
2022-08-05T02:39:09.821Z,31.79
2022-08-05T02:41:57.455Z,31.77
2022-08-05T02:44:26.339Z,31.80
2022-08-05T02:47:00.280Z,31.72
2022-08-05T02:49:36.879Z,31.70
2022-08-05T02:52:05.147Z,31.69
2022-08-05T02:54:36.019Z,31.69
2022-08-05T02:57:05.138Z,31.64
2022-08-05T02:59:50.310Z,31.47
2022-08-05T03:02:17.375Z,31.37
2022-08-05T03:04:44.610Z,31.46
2022-08-05T03:07:24.624Z,31.48
2022-08-05T03:09:58.792Z,31.19
2022-08-05T03:12:28.518Z,30.53
2022-08-05T03:14:55.440Z,31.00
2022-08-05T03:17:27.319Z,31.06
2022-08-05T03:19:58.602Z,30.94
2022-08-05T03:22:32.833Z,30.89
2022-08-05T03:25:31.560Z,30.95
2022-08-05T03:28:00.141Z,31.06
2022-08-05T03:30:30.266Z,30.92
2022-08-05T03:33:00.908Z,30.91
2022-08-05T03:35:27.939Z,31.00
2022-08-05T03:37:54.677Z,30.93
2022-08-05T03:40:24.077Z,30.85
2022-08-05T03:42:51.670Z,30.84
2022-08-05T03:45:21.661Z,31.12
2022-08-05T03:47:49.846Z,30.93
2022-08-05T03:50:16.633Z,31.14
2022-08-05T03:55:00.126Z,30.72
2022-08-05T03:56:01.680Z,30.82
2022-08-05T03:58:16.348Z,30.80
2022-08-05T04:00:44.304Z,30.83
2022-08-05T04:03:28.280Z,30.80
2022-08-05T04:05:55.851Z,30.80
2022-08-05T04:08:34.689Z,30.70
2022-08-05T04:11:02.821Z,30.84
2022-08-05T04:13:53.596Z,30.90
2022-08-05T04:16:24.085Z,30.92
2022-08-05T04:18:54.400Z,30.85
2022-08-05T04:22:09.849Z,30.74
2022-08-05T04:24:08.923Z,30.70
2022-08-05T04:26:36.169Z,30.74
2022-08-05T04:29:07.227Z,30.73
2022-08-05T04:31:38.469Z,30.61
2022-08-05T04:34:31.897Z,30.66
2022-08-05T04:36:57.993Z,30.86
2022-08-05T04:39:24.719Z,30.85
2022-08-05T04:41:54.429Z,30.85
2022-08-05T04:44:30.701Z,30.92
2022-08-05T04:47:09.561Z,30.85
2022-08-05T04:49:39.147Z,30.83
2022-08-05T04:52:27.696Z,30.86
2022-08-05T04:54:57.419Z,30.70
2022-08-05T04:57:29.120Z,30.68
2022-08-05T04:59:59.017Z,30.11
2022-08-05T05:02:37.136Z,30.32
2022-08-05T05:05:26.296Z,30.44
2022-08-05T05:07:56.659Z,30.25
2022-08-05T05:10:29.583Z,30.66
2022-08-05T05:12:58.846Z,30.73
2022-08-05T05:15:57.577Z,30.79
2022-08-05T05:18:12.905Z,30.79
2022-08-05T05:20:40.895Z,30.51
2022-08-05T05:23:20.026Z,30.52
2022-08-05T05:25:47.851Z,30.72
2022-08-05T05:28:14.486Z,30.56
2022-08-05T05:30:42.634Z,30.81
2022-08-05T05:33:17.312Z,30.99
2022-08-05T05:35:47.001Z,31.33
2022-08-05T05:38:14.653Z,31.66
2022-08-05T05:40:51.200Z,31.98
2022-08-05T05:43:56.615Z,32.23
2022-08-05T05:46:17.616Z,32.55
2022-08-05T05:48:45.972Z,32.86
2022-08-05T05:51:15.581Z,32.92
2022-08-05T05:53:54.521Z,33.02
2022-08-05T05:59:10.915Z,33.03
2022-08-05T06:01:57.175Z,33.14
2022-08-05T06:04:24.908Z,33.14
2022-08-05T06:06:51.957Z,33.09
2022-08-05T06:09:25.944Z,33.20
2022-08-05T06:12:02.711Z,33.26
2022-08-05T06:14:34.658Z,33.01
2022-08-05T06:17:22.301Z,32.99
2022-08-05T06:19:56.807Z,32.94
2022-08-05T06:22:26.349Z,32.72
2022-08-05T06:24:53.292Z,32.87
2022-08-05T06:27:20.012Z,32.72
2022-08-05T06:30:17.919Z,32.54
2022-08-05T06:32:50.552Z,32.57
2022-08-05T06:36:02.999Z,32.60
2022-08-05T06:38:07.137Z,32.69
2022-08-05T06:40:42.023Z,32.78
2022-08-05T06:43:57.536Z,32.88
2022-08-05T06:46:06.931Z,33.05
2022-08-05T06:48:47.451Z,33.12
2022-08-05T06:51:29.075Z,33.31
2022-08-05T06:53:57.411Z,33.49
2022-08-05T06:56:26.262Z,33.45
2022-08-05T06:58:53.617Z,33.65
2022-08-05T07:01:32.433Z,33.80
2022-08-05T07:04:02.282Z,34.04
2022-08-05T07:06:32.989Z,34.14
2022-08-05T07:09:09.650Z,34.23
2022-08-05T07:11:39.873Z,34.29
2022-08-05T07:14:06.682Z,34.38
2022-08-05T07:22:18.635Z,34.64
2022-08-05T07:24:53.714Z,34.80
2022-08-05T07:27:21.619Z,34.79
2022-08-05T07:30:24.186Z,34.98
2022-08-05T07:32:39.031Z,34.90
2022-08-05T07:36:01.624Z,35.06
2022-08-05T07:37:53.494Z,35.00
2022-08-05T07:40:32.251Z,35.06
2022-08-05T07:43:04.702Z,35.12
2022-08-05T07:45:43.434Z,35.15
2022-08-05T07:49:00.446Z,35.21
2022-08-05T07:51:36.397Z,35.00
2022-08-05T07:53:59.283Z,35.07
2022-08-05T07:57:00.586Z,35.14
2022-08-05T07:59:15.511Z,35.14
2022-08-05T08:01:52.357Z,35.07
2022-08-05T08:04:38.137Z,35.02
2022-08-05T08:07:07.354Z,34.93
2022-08-05T08:09:35.132Z,34.86
2022-08-05T08:12:14.330Z,34.98
2022-08-05T08:14:48.780Z,34.95
2022-08-05T08:17:18.522Z,34.99
2022-08-05T08:20:43.862Z,35.03
2022-08-05T08:22:38.985Z,34.89
2022-08-05T08:25:16.155Z,34.91
2022-08-05T08:27:45.069Z,34.98
2022-08-05T08:30:28.572Z,34.90
2022-08-05T08:32:56.884Z,34.88
2022-08-05T08:35:26.764Z,34.85
2022-08-05T08:37:54.426Z,34.79
2022-08-05T08:40:23.488Z,34.78
2022-08-05T08:42:52.752Z,34.83
2022-08-05T08:45:27.033Z,34.77
2022-08-05T08:48:12.805Z,34.74
2022-08-05T08:51:03.960Z,34.74
2022-08-05T08:53:30.492Z,34.77
2022-08-05T08:56:05.517Z,34.75
2022-08-05T08:58:44.015Z,34.73
2022-08-05T09:01:17.114Z,34.75
2022-08-05T09:03:45.199Z,34.61
2022-08-05T09:06:17.226Z,34.55
2022-08-05T09:08:47.075Z,34.51
2022-08-05T09:11:15.165Z,34.48
2022-08-05T09:14:09.277Z,34.54
2022-08-05T09:16:28.526Z,34.49
2022-08-05T09:18:56.105Z,34.59
2022-08-05T09:22:22.751Z,34.57
2022-08-05T09:26:54.760Z,34.71
2022-08-05T09:29:30.899Z,34.83
2022-08-05T09:32:40.851Z,34.99
2022-08-05T09:34:45.629Z,34.92
2022-08-05T09:37:15.180Z,35.12
2022-08-05T09:39:52.274Z,35.09
2022-08-05T09:42:24.351Z,35.14
2022-08-05T09:44:56.039Z,35.30
2022-08-05T09:47:25.674Z,35.34
2022-08-05T09:50:01.247Z,35.34
2022-08-05T09:52:32.448Z,35.32
2022-08-05T09:55:55.018Z,35.31
2022-08-05T09:57:48.606Z,35.33
2022-08-05T10:00:19.487Z,35.29
2022-08-05T10:02:50.233Z,35.30
2022-08-05T10:05:17.997Z,35.31
2022-08-05T10:08:36.791Z,35.27
2022-08-05T10:10:36.279Z,35.20
2022-08-05T10:13:09.859Z,35.18
2022-08-05T10:15:39.123Z,34.98
2022-08-05T10:18:08.052Z,35.06
2022-08-05T10:20:44.093Z,35.13
2022-08-05T10:23:34.300Z,35.06
2022-08-05T10:25:59.508Z,35.04
2022-08-05T10:28:30.350Z,35.12
2022-08-05T10:32:47.817Z,35.16
2022-08-05T10:33:54.054Z,35.17
2022-08-05T10:36:23.609Z,35.13
2022-08-05T10:38:53.891Z,35.15
2022-08-05T10:41:23.634Z,35.19
2022-08-05T10:43:52.888Z,35.15
2022-08-05T10:46:24.081Z,35.13
2022-08-05T10:48:57.276Z,35.15
2022-08-05T10:51:28.936Z,35.18
2022-08-05T10:54:01.908Z,35.17
2022-08-05T10:56:32.641Z,35.14
2022-08-05T10:59:07.192Z,35.14
2022-08-05T11:01:55.303Z,35.12
2022-08-05T11:04:30.911Z,35.11
2022-08-05T11:06:59.158Z,35.04
2022-08-05T11:09:39.074Z,35.07
2022-08-05T11:12:17.189Z,35.03
2022-08-05T11:15:11.426Z,35.04
2022-08-05T11:18:09.598Z,34.95
2022-08-05T11:20:19.108Z,34.69
2022-08-05T11:22:50.052Z,34.87
2022-08-05T11:26:04.686Z,34.90
2022-08-05T11:28:07.911Z,34.72
2022-08-05T11:30:36.915Z,35.00
2022-08-05T11:33:13.669Z,35.13
2022-08-05T11:36:02.799Z,35.22
2022-08-05T11:38:37.327Z,35.32
2022-08-05T11:41:54.729Z,35.42
2022-08-05T11:44:08.391Z,35.46
2022-08-05T11:47:10.196Z,35.54
2022-08-05T11:49:34.578Z,35.65
2022-08-05T11:52:11.421Z,35.76
2022-08-05T11:54:41.305Z,35.81
2022-08-05T11:57:24.806Z,35.90
2022-08-05T11:59:53.003Z,35.94
2022-08-05T12:02:29.936Z,36.00
2022-08-05T12:05:00.163Z,36.06
2022-08-05T12:08:10.445Z,36.11
2022-08-05T12:10:14.026Z,35.96
2022-08-05T12:12:58.115Z,36.17
2022-08-05T12:15:38.050Z,36.25
2022-08-05T12:18:10.650Z,36.34
2022-08-05T12:20:42.743Z,36.40
2022-08-05T12:23:14.229Z,36.44
2022-08-05T12:25:41.212Z,36.51
2022-08-05T12:28:08.911Z,36.60
2022-08-05T12:30:45.860Z,36.69
2022-08-05T12:33:27.362Z,36.64
2022-08-05T12:35:55.015Z,36.76
2022-08-05T12:38:22.293Z,36.81
2022-08-05T12:40:58.549Z,36.67
2022-08-05T12:43:27.414Z,36.84
2022-08-05T12:46:00.806Z,36.98
2022-08-05T12:48:32.971Z,37.00
2022-08-05T12:50:59.780Z,37.07
2022-08-05T12:53:33.033Z,37.11
2022-08-05T12:56:03.879Z,37.10
2022-08-05T12:58:49.211Z,37.22
2022-08-05T13:02:04.060Z,37.26
2022-08-05T13:04:04.588Z,37.26
2022-08-05T13:06:34.592Z,37.32
2022-08-05T13:09:01.221Z,37.32
2022-08-05T13:12:01.219Z,37.40
2022-08-05T13:14:15.332Z,37.46
2022-08-05T13:16:48.566Z,37.43
2022-08-05T13:19:18.639Z,37.48
2022-08-05T13:21:47.926Z,37.52
2022-08-05T13:24:27.559Z,37.50
2022-08-05T13:27:11.204Z,37.56
2022-08-05T13:29:59.393Z,37.56
2022-08-05T13:32:39.396Z,37.64
2022-08-05T13:35:10.729Z,37.67
2022-08-05T13:37:38.511Z,37.59
2022-08-05T13:40:16.337Z,37.70
2022-08-05T13:42:55.697Z,37.74
2022-08-05T13:45:33.942Z,37.74
2022-08-05T13:48:08.753Z,37.78
2022-08-05T13:50:51.630Z,37.73
2022-08-05T13:53:20.277Z,37.91
2022-08-05T13:55:50.121Z,37.96
2022-08-05T13:58:30.760Z,38.03
2022-08-05T14:00:58.079Z,38.04
2022-08-05T14:03:26.594Z,38.06
2022-08-05T14:06:25.636Z,38.11
2022-08-05T14:08:42.989Z,38.18
2022-08-05T14:11:20.175Z,38.21
2022-08-05T14:13:48.114Z,38.21
2022-08-05T14:16:19.108Z,38.18
2022-08-05T14:18:48.220Z,38.34
2022-08-05T14:22:07.517Z,38.41
2022-08-05T14:24:03.395Z,38.40
2022-08-05T14:26:37.039Z,38.51
2022-08-05T14:29:15.742Z,38.57
2022-08-05T14:32:02.557Z,38.60
2022-08-05T14:34:35.061Z,38.62
2022-08-05T14:37:04.625Z,38.59
2022-08-05T14:39:49.463Z,38.58
2022-08-05T14:42:23.511Z,38.63
2022-08-05T14:44:52.575Z,38.58
2022-08-05T14:47:58.426Z,38.54
2022-08-05T14:50:18.293Z,38.39
2022-08-05T14:52:53.010Z,38.31
2022-08-05T14:55:24.992Z,38.21
2022-08-05T14:57:54.771Z,37.76
2022-08-05T15:00:27.916Z,37.44
2022-08-05T15:02:58.206Z,37.16
2022-08-05T15:05:30.042Z,37.11
2022-08-05T15:08:38.056Z,36.85
2022-08-05T15:11:01.433Z,36.64
2022-08-05T15:13:28.613Z,36.91
2022-08-05T15:16:13.197Z,36.76
2022-08-05T15:18:43.570Z,36.66
2022-08-05T15:21:14.209Z,36.33
2022-08-05T15:23:41.652Z,36.28
2022-08-05T15:26:08.596Z,36.51
2022-08-05T15:28:37.718Z,36.64
2022-08-05T15:31:09.534Z,36.56
2022-08-05T15:34:04.022Z,36.64
2022-08-05T15:36:25.868Z,36.71
2022-08-05T15:40:58.917Z,36.54
2022-08-05T15:41:55.698Z,36.52
2022-08-05T15:44:24.384Z,36.63
2022-08-05T15:46:56.349Z,36.67
2022-08-05T15:49:53.398Z,36.67
2022-08-05T15:52:16.214Z,36.69
2022-08-05T15:54:57.667Z,36.68
2022-08-05T15:57:26.110Z,36.57
2022-08-05T16:00:00.423Z,36.35
2022-08-05T16:02:29.507Z,36.57
2022-08-05T16:04:56.531Z,36.49
2022-08-05T16:07:23.381Z,36.48
2022-08-05T16:09:50.842Z,36.38
2022-08-05T16:12:25.654Z,36.21
2022-08-05T16:14:53.404Z,36.05
2022-08-05T16:17:20.039Z,36.26
2022-08-05T16:20:04.800Z,36.40
2022-08-05T16:22:41.121Z,36.40
2022-08-05T16:25:09.769Z,36.40
2022-08-05T16:27:59.936Z,36.45
2022-08-05T16:30:26.244Z,36.39
2022-08-05T16:32:56.028Z,36.01
2022-08-05T16:35:24.857Z,35.67
2022-08-05T16:38:15.303Z,35.59
2022-08-05T16:40:52.340Z,35.53
2022-08-05T16:43:29.356Z,35.32
2022-08-05T16:46:08.137Z,35.34
2022-08-05T16:48:47.192Z,35.46
2022-08-05T16:51:17.728Z,35.32
2022-08-05T16:54:05.615Z,34.92
2022-08-05T16:56:31.968Z,34.91
2022-08-05T16:58:58.904Z,34.66
2022-08-05T17:01:27.723Z,33.99
2022-08-05T17:04:15.994Z,33.84
2022-08-05T17:06:45.449Z,34.01
2022-08-05T17:09:20.196Z,34.00
2022-08-05T17:11:49.738Z,33.26
2022-08-05T17:14:22.367Z,33.08
2022-08-05T17:17:01.676Z,33.43
2022-08-05T17:19:30.040Z,33.42
2022-08-05T17:22:00.561Z,32.82
2022-08-05T17:24:40.344Z,32.55
2022-08-05T17:27:13.155Z,31.95
2022-08-05T17:29:47.175Z,32.22
2022-08-05T17:32:18.996Z,32.13
2022-08-05T17:37:40.181Z,31.76
2022-08-05T17:40:14.270Z,31.27
2022-08-05T17:42:43.138Z,30.89
2022-08-05T17:45:20.559Z,31.01
2022-08-05T17:47:53.615Z,30.69
2022-08-05T17:50:28.952Z,31.37
2022-08-05T17:52:58.626Z,31.59
2022-08-05T17:55:34.665Z,32.03
2022-08-05T17:58:06.932Z,32.30
2022-08-05T18:03:28.180Z,31.72
2022-08-05T18:06:04.925Z,31.09
2022-08-05T18:08:31.640Z,30.95
2022-08-05T18:11:00.881Z,30.77
2022-08-05T18:13:36.694Z,30.81
2022-08-05T18:16:13.558Z,31.10
2022-08-05T18:18:40.612Z,31.27
2022-08-05T18:21:13.248Z,31.05
2022-08-05T18:23:47.165Z,30.98
2022-08-05T18:26:14.023Z,31.30
2022-08-05T18:28:44.858Z,31.20
2022-08-05T18:31:14.941Z,30.80
2022-08-05T18:33:47.291Z,31.17
2022-08-05T18:36:19.202Z,31.04
2022-08-05T18:38:47.075Z,31.38
2022-08-05T18:41:56.809Z,31.07
2022-08-05T18:44:06.448Z,30.87
2022-08-05T18:46:37.105Z,31.21
2022-08-05T18:49:11.407Z,30.85
2022-08-05T18:52:05.820Z,30.52
2022-08-05T18:54:27.618Z,30.04
2022-08-05T18:56:57.857Z,30.49
2022-08-05T18:59:43.838Z,30.43
2022-08-05T19:02:38.035Z,29.47
2022-08-05T19:06:05.722Z,28.93
2022-08-05T19:07:53.421Z,29.66
2022-08-05T19:10:28.243Z,29.46
2022-08-05T19:12:56.286Z,29.88
2022-08-05T19:15:58.138Z,29.98
2022-08-05T19:18:20.624Z,30.28
2022-08-05T19:27:16.916Z,30.34
2022-08-05T19:29:57.386Z,30.04
2022-08-05T19:32:45.614Z,30.07
2022-08-05T19:35:17.985Z,29.96
2022-08-05T19:38:06.421Z,29.84
2022-08-05T19:40:35.758Z,29.18
2022-08-05T19:43:05.340Z,29.83
2022-08-05T19:45:36.480Z,30.20
2022-08-05T19:48:04.046Z,30.35
2022-08-05T19:50:32.472Z,30.41
2022-08-05T19:53:10.517Z,30.23
2022-08-05T19:56:15.399Z,30.60
2022-08-05T19:58:29.231Z,30.72
2022-08-05T20:00:58.923Z,30.68
2022-08-05T20:03:26.089Z,30.49
2022-08-05T20:05:52.841Z,30.45
2022-08-05T20:08:24.555Z,30.52
2022-08-05T20:10:51.301Z,30.83
2022-08-05T20:13:30.308Z,30.99
2022-08-05T20:16:05.366Z,30.95
2022-08-05T20:18:35.094Z,30.90
2022-08-05T20:21:06.537Z,30.74
2022-08-05T20:23:42.285Z,30.66
2022-08-05T20:26:21.217Z,30.65
2022-08-05T21:00:21.296Z,29.64
2022-08-05T21:02:43.735Z,29.68
2022-08-05T21:05:18.856Z,29.83
2022-08-05T21:07:51.834Z,29.83
2022-08-05T21:10:19.422Z,29.59
2022-08-05T21:12:58.075Z,29.55
2022-08-05T21:15:34.081Z,29.69
2022-08-05T21:18:00.778Z,29.71
2022-08-05T21:20:33.300Z,29.48
2022-08-05T21:23:01.093Z,29.48
2022-08-05T21:31:24.614Z,29.66
2022-08-05T21:33:52.026Z,29.66
2022-08-05T21:36:30.036Z,29.66
2022-08-05T21:38:59.746Z,29.50
2022-08-05T21:41:32.861Z,29.29
2022-08-05T21:44:03.904Z,29.44
2022-08-05T21:46:32.188Z,29.53
2022-08-05T21:49:01.568Z,29.45
2022-08-05T21:52:16.707Z,29.43
2022-08-05T21:54:15.488Z,29.41
2022-08-05T21:56:51.376Z,29.04
2022-08-05T21:59:23.893Z,29.09
2022-08-05T22:01:54.543Z,28.84
2022-08-05T22:04:25.234Z,29.04
2022-08-05T22:09:45.874Z,29.08
2022-08-05T22:12:20.955Z,29.09
2022-08-05T22:14:53.364Z,28.81
2022-08-05T22:17:20.345Z,28.81
2022-08-05T22:20:00.849Z,28.74
2022-08-05T22:22:33.815Z,28.85
2022-08-05T22:25:01.574Z,28.90
2022-08-05T22:28:09.914Z,28.81
2022-08-05T22:30:22.419Z,28.70
2022-08-05T22:32:49.465Z,28.51
2022-08-05T22:35:16.899Z,28.56
2022-08-05T22:37:58.753Z,28.65
2022-08-05T22:40:26.069Z,28.53
2022-08-05T22:42:53.227Z,28.66
2022-08-05T22:45:25.307Z,28.78
2022-08-05T22:47:55.294Z,28.82
2022-08-05T22:50:26.839Z,28.85
2022-08-05T22:52:54.764Z,28.63
2022-08-05T22:55:21.810Z,28.66
2022-08-05T22:57:48.987Z,28.81
2022-08-05T23:00:18.214Z,28.81
2022-08-05T23:02:48.297Z,28.78
2022-08-05T23:05:17.089Z,28.64
2022-08-05T23:07:49.494Z,28.73
2022-08-05T23:10:19.960Z,28.62
2022-08-05T23:12:47.870Z,28.44
2022-08-05T23:15:19.139Z,28.62
2022-08-05T23:18:01.528Z,28.45
2022-08-05T23:20:29.242Z,28.73
2022-08-05T23:22:56.590Z,28.62
2022-08-05T23:25:50.962Z,28.70
2022-08-05T23:28:12.411Z,28.76
2022-08-05T23:30:40.086Z,28.39
2022-08-05T23:33:22.245Z,28.48
2022-08-05T23:35:55.831Z,28.41
2022-08-05T23:38:23.011Z,28.39
2022-08-05T23:40:52.429Z,28.33
2022-08-05T23:43:25.335Z,28.40
2022-08-05T23:46:20.369Z,28.23
2022-08-05T23:49:00.490Z,28.30
2022-08-05T23:51:28.516Z,28.33
2022-08-05T23:54:00.952Z,28.32
2022-08-05T23:56:28.750Z,28.27
2022-08-05T23:58:58.507Z,28.46
